createdAt,value
2018-07-19T00:02:02.576Z,101154.22
2018-07-19T00:04:33.704Z,101159.79
2018-07-19T00:07:02.593Z,101159.41
2018-07-19T00:09:31.816Z,101165.22
2018-07-19T00:12:00.732Z,101165.13
2018-07-19T00:14:29.620Z,101163.45
2018-07-19T00:16:58.694Z,101161.64
2018-07-19T00:19:27.643Z,101170.03
2018-07-19T00:21:56.567Z,101163.64
2018-07-19T00:24:25.575Z,101170.92
2018-07-19T00:26:54.611Z,101171.66
2018-07-19T00:29:23.590Z,101172.20
2018-07-19T00:31:52.373Z,101173.52
2018-07-19T00:34:21.313Z,101174.53
2018-07-19T00:36:50.481Z,101172.96
2018-07-19T00:39:19.075Z,101173.29
2018-07-19T00:41:49.654Z,101172.30
2018-07-19T00:44:18.219Z,101177.91
2018-07-19T00:46:47.540Z,101171.83
2018-07-19T00:49:16.710Z,101167.70
2018-07-19T00:51:45.485Z,101164.62
2018-07-19T00:54:14.889Z,101169.30
2018-07-19T00:56:43.805Z,101169.94
2018-07-19T00:59:12.762Z,101169.23
2018-07-19T01:01:41.600Z,101167.98
2018-07-19T01:04:10.518Z,101167.47
2018-07-19T01:06:39.205Z,101163.66
2018-07-19T01:09:10.317Z,101163.02
2018-07-19T01:11:39.036Z,101162.41
2018-07-19T01:14:07.900Z,101163.46
2018-07-19T01:16:36.834Z,101158.59
2018-07-19T01:19:05.483Z,101160.67
2018-07-19T01:21:34.088Z,101158.50
2018-07-19T01:24:02.931Z,101154.98
2018-07-19T01:26:31.502Z,101154.56
2018-07-19T01:29:00.083Z,101152.09
2018-07-19T01:31:28.963Z,101145.91
2018-07-19T01:33:57.874Z,101150.73
2018-07-19T01:36:26.563Z,101152.98
2018-07-19T01:38:55.159Z,101147.90
2018-07-19T01:41:36.731Z,101149.95
2018-07-19T01:44:05.359Z,101152.69
2018-07-19T01:46:34.205Z,101156.59
2018-07-19T01:49:03.044Z,101154.27
2018-07-19T01:51:31.644Z,101156.88
2018-07-19T01:54:00.430Z,101157.64
2018-07-19T01:56:29.136Z,101156.73
2018-07-19T01:58:57.736Z,101160.17
2018-07-19T02:01:26.285Z,101160.96
2018-07-19T02:03:55.053Z,101163.45
2018-07-19T02:06:23.715Z,101167.37
2018-07-19T02:08:52.339Z,101163.45
2018-07-19T02:11:21.001Z,101165.72
2018-07-19T02:13:49.867Z,101168.54
2018-07-19T02:16:18.862Z,101166.73
2018-07-19T02:18:47.642Z,101168.00
2018-07-19T02:21:16.735Z,101169.02
2018-07-19T02:23:45.305Z,101169.84
2018-07-19T02:26:13.938Z,101179.02
2018-07-19T02:28:42.588Z,101174.81
2018-07-19T02:31:11.331Z,101172.62
2018-07-19T02:33:43.589Z,101172.84
2018-07-19T02:36:12.350Z,101175.82
2018-07-19T02:38:40.959Z,101173.75
2018-07-19T02:41:09.978Z,101171.28
2018-07-19T02:43:40.705Z,101165.59
2018-07-19T02:46:09.382Z,101171.91
2018-07-19T02:48:38.162Z,101164.38
2018-07-19T02:51:07.119Z,101165.72
2018-07-19T02:53:36.133Z,101166.53
2018-07-19T02:56:04.859Z,101168.67
2018-07-19T02:58:33.801Z,101168.78
2018-07-19T03:01:02.566Z,101167.12
2018-07-19T03:03:34.651Z,101170.64
2018-07-19T03:06:03.547Z,101167.74
2018-07-19T03:08:32.483Z,101169.59
2018-07-19T03:11:01.338Z,101173.80
2018-07-19T03:13:30.103Z,101174.19
2018-07-19T03:15:58.724Z,101171.29
2018-07-19T03:18:27.519Z,101173.13
2018-07-19T03:20:56.300Z,101172.63
2018-07-19T03:23:25.110Z,101171.91
2018-07-19T03:25:53.922Z,101169.59
2018-07-19T03:28:22.805Z,101169.08
2018-07-19T03:30:51.780Z,101164.95
2018-07-19T03:33:20.571Z,101168.97
2018-07-19T03:35:49.953Z,101172.05
2018-07-19T03:38:18.767Z,101169.08
2018-07-19T03:40:47.443Z,101170.50
2018-07-19T03:43:16.228Z,101170.71
2018-07-19T03:45:44.857Z,101172.45
2018-07-19T03:48:13.530Z,101166.69
2018-07-19T03:50:42.239Z,101167.30
2018-07-19T03:53:10.821Z,101170.39
2018-07-19T03:55:39.608Z,101165.64
2018-07-19T03:58:08.364Z,101168.03
2018-07-19T04:00:37.139Z,101169.66
2018-07-19T04:03:05.880Z,101169.88
2018-07-19T04:05:34.506Z,101163.10
2018-07-19T04:08:03.115Z,101169.30
2018-07-19T04:10:31.910Z,101166.00
2018-07-19T04:13:00.573Z,101167.55
2018-07-19T04:15:29.383Z,101161.16
2018-07-19T04:17:58.898Z,101163.45
2018-07-19T04:20:28.933Z,101165.20
2018-07-19T04:22:57.856Z,101167.98
2018-07-19T04:25:27.462Z,101168.83
2018-07-19T04:27:57.167Z,101165.10
2018-07-19T04:30:25.853Z,101161.81
2018-07-19T04:32:54.740Z,101161.58
2018-07-19T04:35:23.563Z,101169.03
2018-07-19T04:37:52.244Z,101165.70
2018-07-19T04:40:21.018Z,101166.61
2018-07-19T04:42:49.793Z,101169.17
2018-07-19T04:45:18.648Z,101167.61
2018-07-19T04:47:47.437Z,101168.69
2018-07-19T04:50:16.165Z,101169.80
2018-07-19T04:52:45.472Z,101174.63
2018-07-19T04:55:14.303Z,101175.64
2018-07-19T04:57:42.951Z,101174.95
2018-07-19T05:00:11.761Z,101170.53
2018-07-19T05:02:40.432Z,101169.95
2018-07-19T05:05:09.321Z,101175.06
2018-07-19T05:07:38.117Z,101180.36
2018-07-19T05:10:06.969Z,101178.06
2018-07-19T05:12:36.602Z,101178.58
2018-07-19T05:15:05.406Z,101187.30
2018-07-19T05:17:34.421Z,101187.31
2018-07-19T05:20:03.198Z,101184.02
2018-07-19T05:22:31.885Z,101180.06
2018-07-19T05:25:00.701Z,101177.88
2018-07-19T05:27:29.491Z,101184.99
2018-07-19T05:29:58.460Z,101179.87
2018-07-19T05:32:27.218Z,101182.81
2018-07-19T05:34:56.017Z,101176.05
2018-07-19T05:37:24.724Z,101173.17
2018-07-19T05:39:53.437Z,101170.59
2018-07-19T05:42:22.188Z,101172.88
2018-07-19T05:44:50.810Z,101171.83
2018-07-19T05:47:19.444Z,101174.53
2018-07-19T05:49:48.136Z,101178.80
2018-07-19T05:52:16.858Z,101179.85
2018-07-19T05:54:45.748Z,101176.26
2018-07-19T05:57:14.509Z,101179.41
2018-07-19T05:59:43.295Z,101176.04
2018-07-19T06:02:12.080Z,101169.30
2018-07-19T06:04:40.806Z,101168.52
2018-07-19T06:07:09.583Z,101158.82
2018-07-19T06:09:38.323Z,101164.66
2018-07-19T06:12:07.122Z,101164.56
2018-07-19T06:14:35.922Z,101162.79
2018-07-19T06:17:04.641Z,101162.02
2018-07-19T06:19:33.333Z,101161.54
2018-07-19T06:22:02.111Z,101169.24
2018-07-19T06:24:30.962Z,101165.48
2018-07-19T06:26:59.705Z,101165.84
2018-07-19T06:29:28.394Z,101168.73
2018-07-19T06:31:57.134Z,101168.33
2018-07-19T06:34:25.931Z,101160.23
2018-07-19T06:36:54.743Z,101164.66
2018-07-19T06:39:23.441Z,101160.31
2018-07-19T06:41:52.143Z,101160.31
2018-07-19T06:44:21.458Z,101162.48
2018-07-19T06:46:50.362Z,101165.48
2018-07-19T06:49:24.796Z,101168.44
2018-07-19T06:51:53.584Z,101163.22
2018-07-19T06:54:22.256Z,101154.48
2018-07-19T06:56:51.116Z,101157.77
2018-07-19T06:59:19.998Z,101161.55
2018-07-19T07:01:48.778Z,101156.00
2018-07-19T07:04:17.522Z,101159.83
2018-07-19T07:06:46.395Z,101160.28
2018-07-19T07:09:15.076Z,101152.80
2018-07-19T07:11:43.726Z,101155.03
2018-07-19T07:14:25.602Z,101152.45
2018-07-19T07:16:54.299Z,101155.59
2018-07-19T07:19:23.046Z,101154.05
2018-07-19T07:21:51.819Z,101151.08
2018-07-19T07:24:28.502Z,101152.55
2018-07-19T07:26:57.140Z,101154.32
2018-07-19T07:29:25.978Z,101160.50
2018-07-19T07:31:54.708Z,101158.18
2018-07-19T07:34:23.560Z,101161.58
2018-07-19T07:36:52.365Z,101158.00
2018-07-19T07:39:21.161Z,101157.34
2018-07-19T07:41:49.835Z,101161.27
2018-07-19T07:44:18.628Z,101166.86
2018-07-19T07:46:47.318Z,101166.16
2018-07-19T07:49:15.999Z,101166.16
2018-07-19T07:51:44.741Z,101166.66
2018-07-19T07:54:23.757Z,101171.00
2018-07-19T07:56:52.477Z,101162.63
2018-07-19T07:59:22.649Z,101167.56
2018-07-19T08:01:51.328Z,101164.20
2018-07-19T08:04:25.615Z,101171.89
2018-07-19T08:06:54.972Z,101173.56
2018-07-19T08:09:23.660Z,101171.95
2018-07-19T08:11:52.812Z,101172.22
2018-07-19T08:14:23.250Z,101177.20
2018-07-19T08:16:52.272Z,101175.94
2018-07-19T08:19:22.217Z,101179.80
2018-07-19T08:21:52.271Z,101178.41
2018-07-19T08:24:23.997Z,101174.65
2018-07-19T08:26:56.562Z,101173.21
2018-07-19T08:29:25.210Z,101176.37
2018-07-19T08:31:54.832Z,101170.33
2018-07-19T08:34:30.516Z,101168.00
2018-07-19T08:36:59.149Z,101166.00
2018-07-19T08:39:30.166Z,101154.16
2018-07-19T08:41:59.775Z,101156.28
2018-07-19T08:44:38.325Z,101157.42
2018-07-19T08:47:07.135Z,101158.73
2018-07-19T08:49:35.826Z,101156.10
2018-07-19T08:52:04.540Z,101155.53
2018-07-19T08:54:33.660Z,101156.19
2018-07-19T08:57:02.563Z,101151.30
2018-07-19T08:59:31.295Z,101149.02
2018-07-19T09:02:00.321Z,101154.53
2018-07-19T09:04:30.037Z,101142.96
2018-07-19T09:06:58.704Z,101149.67
2018-07-19T09:09:27.402Z,101147.84
2018-07-19T09:11:56.474Z,101145.33
2018-07-19T09:14:29.914Z,101146.31
2018-07-19T09:16:58.674Z,101152.91
2018-07-19T09:19:27.697Z,101147.27
2018-07-19T09:21:57.837Z,101144.42
2018-07-19T09:24:26.565Z,101144.91
2018-07-19T09:26:55.310Z,101141.10
2018-07-19T09:29:24.043Z,101141.98
2018-07-19T09:31:52.779Z,101141.48
2018-07-19T09:34:21.524Z,101137.03
2018-07-19T09:36:52.809Z,101129.69
2018-07-19T09:39:21.486Z,101129.98
2018-07-19T09:41:50.200Z,101126.86
2018-07-19T09:44:19.311Z,101123.47
2018-07-19T09:47:16.389Z,101119.41
2018-07-19T09:49:45.083Z,101116.45
2018-07-19T09:52:13.870Z,101113.59
2018-07-19T09:54:54.407Z,101117.12
2018-07-19T09:57:23.108Z,101115.83
2018-07-19T09:59:51.871Z,101118.36
2018-07-19T10:02:20.602Z,101115.86
2018-07-19T10:04:49.316Z,101114.92
2018-07-19T10:07:18.222Z,101111.16
2018-07-19T10:09:46.864Z,101111.61
2018-07-19T10:12:15.714Z,101110.16
2018-07-19T10:14:46.961Z,101118.52
2018-07-19T10:17:21.412Z,101113.47
2018-07-19T10:19:51.768Z,101115.28
2018-07-19T10:22:20.539Z,101115.91
2018-07-19T10:24:52.389Z,101112.59
2018-07-19T10:27:22.890Z,101110.55
2018-07-19T10:29:53.450Z,101111.41
2018-07-19T10:32:25.165Z,101107.89
2018-07-19T10:34:54.424Z,101103.61
2018-07-19T10:37:33.205Z,101102.66
2018-07-19T10:40:04.178Z,101102.16
2018-07-19T10:42:33.490Z,101099.00
2018-07-19T10:45:02.357Z,101100.87
2018-07-19T10:47:32.159Z,101091.64
2018-07-19T10:50:01.724Z,101095.47
2018-07-19T10:52:31.578Z,101096.89
2018-07-19T10:55:02.120Z,101090.16
2018-07-19T10:57:35.160Z,101091.69
2018-07-19T11:00:03.974Z,101083.27
2018-07-19T11:02:32.923Z,101089.91
2018-07-19T11:05:01.689Z,101083.20
2018-07-19T11:07:38.614Z,101090.12
2018-07-19T11:10:07.266Z,101083.76
2018-07-19T11:12:36.016Z,101083.02
2018-07-19T11:15:05.158Z,101080.34
2018-07-19T11:17:52.520Z,101077.55
2018-07-19T11:20:21.157Z,101070.13
2018-07-19T11:22:49.823Z,101067.39
2018-07-19T11:25:18.450Z,101070.64
2018-07-19T11:27:54.601Z,101065.55
2018-07-19T11:30:23.380Z,101066.33
2018-07-19T11:32:52.289Z,101067.96
2018-07-19T11:35:21.026Z,101064.08
2018-07-19T11:37:57.045Z,101057.00
2018-07-19T11:40:26.071Z,101048.95
2018-07-19T11:42:54.816Z,101051.06
2018-07-19T11:45:23.520Z,101048.95
2018-07-19T11:47:53.296Z,101043.82
2018-07-19T11:50:21.938Z,101040.52
2018-07-19T11:52:50.696Z,101036.89
2018-07-19T11:55:19.391Z,101037.63
2018-07-19T11:57:50.233Z,101040.18
2018-07-19T12:00:18.987Z,101033.61
2018-07-19T12:02:47.658Z,101037.28
2018-07-19T12:05:16.266Z,101029.91
2018-07-19T12:07:45.058Z,101022.05
2018-07-19T12:10:13.683Z,101027.09
2018-07-19T12:12:42.313Z,101024.22
2018-07-19T12:15:10.976Z,101026.23
2018-07-19T12:17:44.162Z,101019.78
2018-07-19T12:20:12.908Z,101019.00
2018-07-19T12:22:41.652Z,101015.00
2018-07-19T12:25:13.208Z,101017.70
2018-07-19T12:27:50.305Z,101021.73
2018-07-19T12:30:19.050Z,101024.95
2018-07-19T12:32:47.732Z,101012.26
2018-07-19T12:35:21.774Z,101011.45
2018-07-19T12:37:54.224Z,101009.54
2018-07-19T12:40:22.999Z,101003.59
2018-07-19T12:43:10.865Z,101003.63
2018-07-19T12:45:53.559Z,100993.27
2018-07-19T12:48:36.569Z,100996.83
2018-07-19T12:51:32.564Z,100989.30
2018-07-19T12:54:13.233Z,100986.16
2018-07-19T12:56:55.909Z,100976.02
2018-07-19T12:59:42.057Z,100980.55
2018-07-19T13:02:38.769Z,100980.29
2018-07-19T13:05:29.792Z,100975.29
2018-07-19T13:08:26.379Z,100977.89
2018-07-19T13:11:12.198Z,100983.81
2018-07-19T13:14:07.139Z,100984.34
2018-07-19T13:16:53.922Z,100985.67
2018-07-19T13:19:23.344Z,100971.62
2018-07-19T13:21:57.278Z,100979.06
2018-07-19T13:24:26.303Z,100969.95
2018-07-19T13:26:55.010Z,100963.36
2018-07-19T13:29:45.285Z,100960.53
2018-07-19T13:32:14.066Z,100967.27
2018-07-19T13:34:42.778Z,100967.66
2018-07-19T13:37:11.506Z,100970.49
2018-07-19T13:39:45.314Z,100968.63
2018-07-19T13:42:14.044Z,100970.35
2018-07-19T13:44:42.712Z,100970.84
2018-07-19T13:47:11.485Z,100965.27
2018-07-19T13:49:40.153Z,100958.09
2018-07-19T13:52:08.900Z,100966.11
2018-07-19T13:54:45.400Z,100959.86
2018-07-19T13:57:14.127Z,100964.07
2018-07-19T13:59:50.300Z,100957.12
2018-07-19T14:02:19.090Z,100953.88
2018-07-19T14:04:49.183Z,100949.70
2018-07-19T14:07:17.929Z,100951.33
2018-07-19T14:09:46.692Z,100951.57
2018-07-19T14:12:15.353Z,100946.48
2018-07-19T14:14:44.226Z,100939.81
2018-07-19T14:17:12.948Z,100938.70
2018-07-19T14:19:55.711Z,100946.98
2018-07-19T14:22:24.715Z,100941.59
2018-07-19T14:24:53.384Z,100937.58
2018-07-19T14:27:22.076Z,100945.37
2018-07-19T14:30:05.163Z,100928.94
2018-07-19T14:32:33.885Z,100932.88
2018-07-19T14:35:02.613Z,100935.13
2018-07-19T14:37:31.287Z,100934.98
2018-07-19T14:40:00.146Z,100934.27
2018-07-19T14:42:28.855Z,100925.86
2018-07-19T14:44:57.657Z,100919.91
2018-07-19T14:47:26.336Z,100923.11
2018-07-19T14:50:02.369Z,100916.91
2018-07-19T14:52:31.149Z,100916.70
2018-07-19T14:54:59.827Z,100906.97
2018-07-19T14:57:28.520Z,100908.41
2018-07-19T14:59:57.603Z,100907.05
2018-07-19T15:02:26.305Z,100903.53
2018-07-19T15:04:54.939Z,100901.25
2018-07-19T15:07:23.793Z,100896.62
2018-07-19T15:09:56.070Z,100890.23
2018-07-19T15:12:24.782Z,100890.47
2018-07-19T15:14:53.525Z,100894.29
2018-07-19T15:17:22.180Z,100888.70
2018-07-19T15:19:51.071Z,100885.27
2018-07-19T15:22:19.738Z,100880.65
2018-07-19T15:24:48.512Z,100879.47
2018-07-19T15:27:17.410Z,100878.92
2018-07-19T15:29:47.112Z,100872.69
2018-07-19T15:32:15.896Z,100873.88
2018-07-19T15:34:44.612Z,100874.77
2018-07-19T15:37:13.302Z,100874.33
2018-07-19T15:39:46.696Z,100874.32
2018-07-19T15:42:15.440Z,100879.48
2018-07-19T15:44:44.096Z,100883.95
2018-07-19T15:47:12.900Z,100868.34
2018-07-19T15:50:13.039Z,100869.45
2018-07-19T15:52:41.630Z,100866.27
2018-07-19T15:55:10.379Z,100865.84
2018-07-19T15:57:39.010Z,100866.92
2018-07-19T16:00:34.714Z,100860.87
2018-07-19T16:03:03.362Z,100858.69
2018-07-19T16:05:32.012Z,100859.44
2018-07-19T16:08:00.710Z,100854.03
2018-07-19T16:10:36.770Z,100856.52
2018-07-19T16:13:05.515Z,100850.84
2018-07-19T16:15:34.361Z,100850.97
2018-07-19T16:18:03.050Z,100843.00
2018-07-19T16:20:48.741Z,100845.37
2018-07-19T16:23:17.740Z,100844.41
2018-07-19T16:25:46.410Z,100842.36
2018-07-19T16:28:15.028Z,100844.75
2018-07-19T16:30:43.833Z,100841.64
2018-07-19T16:33:12.485Z,100835.58
2018-07-19T16:35:41.418Z,100835.27
2018-07-19T16:38:10.240Z,100834.00
2018-07-19T16:40:38.927Z,100835.16
2018-07-19T16:43:07.674Z,100840.25
2018-07-19T16:45:36.344Z,100830.40
2018-07-19T16:48:05.391Z,100830.80
2018-07-19T16:50:34.115Z,100833.59
2018-07-19T16:53:02.857Z,100830.59
2018-07-19T16:55:31.597Z,100826.45
2018-07-19T16:58:00.473Z,100833.95
2018-07-19T17:00:29.236Z,100829.71
2018-07-19T17:02:58.020Z,100823.59
2018-07-19T17:05:26.678Z,100822.30
2018-07-19T17:07:55.730Z,100824.20
2018-07-19T17:10:24.419Z,100825.06
2018-07-19T17:12:53.163Z,100818.23
2018-07-19T17:15:22.158Z,100813.50
2018-07-19T17:17:50.976Z,100808.56
2018-07-19T17:20:19.638Z,100813.39
2018-07-19T17:22:48.298Z,100808.20
2018-07-19T17:25:16.975Z,100806.86
2018-07-19T17:27:45.712Z,100807.67
2018-07-19T17:30:14.443Z,100805.60
2018-07-19T17:32:43.210Z,100806.09
2018-07-19T17:35:11.971Z,100804.31
2018-07-19T17:37:40.690Z,100799.13
2018-07-19T17:40:09.410Z,100798.08
2018-07-19T17:42:38.152Z,100798.45
2018-07-19T17:45:07.096Z,100801.16
2018-07-19T17:47:35.805Z,100797.83
2018-07-19T17:50:04.434Z,100796.44
2018-07-19T17:52:33.044Z,100797.31
2018-07-19T17:55:01.843Z,100799.50
2018-07-19T17:57:31.479Z,100800.86
2018-07-19T18:00:00.222Z,100801.38
2018-07-19T18:02:29.005Z,100798.84
2018-07-19T18:04:57.637Z,100801.28
2018-07-19T18:07:26.346Z,100801.09
2018-07-19T18:09:54.930Z,100800.74
2018-07-19T18:12:23.614Z,100801.16
2018-07-19T18:14:52.418Z,100792.45
2018-07-19T18:17:21.118Z,100798.28
2018-07-19T18:19:49.838Z,100800.08
2018-07-19T18:22:18.588Z,100803.04
2018-07-19T18:24:47.314Z,100803.46
2018-07-19T18:27:16.058Z,100800.41
2018-07-19T18:29:44.731Z,100803.34
2018-07-19T18:32:13.504Z,100800.16
2018-07-19T18:34:42.074Z,100803.23
2018-07-19T18:37:10.848Z,100794.97
2018-07-19T18:39:39.558Z,100804.38
2018-07-19T18:42:08.736Z,100808.89
2018-07-19T18:44:37.543Z,100800.91
2018-07-19T18:47:06.287Z,100800.48
2018-07-19T18:49:35.077Z,100804.36
2018-07-19T18:52:03.811Z,100801.98
2018-07-19T18:54:32.509Z,100804.75
2018-07-19T18:57:01.244Z,100805.55
2018-07-19T18:59:33.784Z,100807.61
2018-07-19T19:02:02.544Z,100803.59
2018-07-19T19:04:31.568Z,100811.23
2018-07-19T19:07:00.304Z,100805.48
2018-07-19T19:09:28.893Z,100811.66
2018-07-19T19:11:57.604Z,100811.50
2018-07-19T19:14:26.326Z,100804.56
2018-07-19T19:16:55.146Z,100807.39
2018-07-19T19:19:23.893Z,100811.03
2018-07-19T19:21:52.623Z,100813.54
2018-07-19T19:24:21.355Z,100818.50
2018-07-19T19:26:49.970Z,100817.44
2018-07-19T19:29:18.748Z,100819.66
2018-07-19T19:31:47.493Z,100810.97
2018-07-19T19:34:16.224Z,100818.28
2018-07-19T19:36:44.954Z,100816.38
2018-07-19T19:39:14.184Z,100813.12
2018-07-19T19:41:43.374Z,100818.55
2018-07-19T19:44:12.720Z,100812.81
2018-07-19T19:46:41.432Z,100819.59
2018-07-19T19:49:10.133Z,100821.77
2018-07-19T19:51:38.739Z,100819.56
2018-07-19T19:54:07.542Z,100820.09
2018-07-19T19:56:36.330Z,100813.57
2018-07-19T19:59:05.066Z,100818.45
2018-07-19T20:01:33.839Z,100821.12
2018-07-19T20:04:02.514Z,100817.55
2018-07-19T20:06:31.158Z,100816.17
2018-07-19T20:08:59.964Z,100820.76
2018-07-19T20:11:28.734Z,100820.76
2018-07-19T20:13:57.460Z,100821.80
2018-07-19T20:16:26.177Z,100825.26
2018-07-19T20:18:54.838Z,100824.59
2018-07-19T20:21:23.447Z,100833.09
2018-07-19T20:23:52.217Z,100825.88
2018-07-19T20:26:20.830Z,100827.13
2018-07-19T20:28:49.555Z,100820.58
2018-07-19T20:31:19.263Z,100827.25
2018-07-19T20:33:48.180Z,100833.08
2018-07-19T20:36:16.903Z,100822.94
2018-07-19T20:38:45.635Z,100827.42
2018-07-19T20:41:14.318Z,100826.60
2018-07-19T20:43:43.106Z,100825.88
2018-07-19T20:46:11.807Z,100822.16
2018-07-19T20:48:40.513Z,100823.76
2018-07-19T20:51:09.185Z,100824.74
2018-07-19T20:53:37.774Z,100824.60
2018-07-19T20:56:06.432Z,100823.98
2018-07-19T20:58:35.161Z,100828.85
2018-07-19T21:01:03.862Z,100836.80
2018-07-19T21:03:33.620Z,100834.56
2018-07-19T21:06:02.332Z,100836.22
2018-07-19T21:08:31.163Z,100832.23
2018-07-19T21:10:59.887Z,100831.88
2018-07-19T21:13:28.532Z,100840.09
2018-07-19T21:15:57.176Z,100840.89
2018-07-19T21:18:25.795Z,100838.66
2018-07-19T21:20:54.524Z,100844.62
2018-07-19T21:23:23.226Z,100844.37
2018-07-19T21:25:51.979Z,100845.73
2018-07-19T21:28:20.704Z,100843.01
2018-07-19T21:30:51.501Z,100847.94
2018-07-19T21:33:20.257Z,100842.53
2018-07-19T21:35:49.160Z,100844.16
2018-07-19T21:38:18.025Z,100846.61
2018-07-19T21:40:46.725Z,100846.61
2018-07-19T21:43:15.545Z,100846.90
2018-07-19T21:45:44.584Z,100840.87
2018-07-19T21:48:13.192Z,100847.61
2018-07-19T21:50:42.651Z,100848.98
2018-07-19T21:53:11.361Z,100845.45
2018-07-19T21:55:40.264Z,100847.27
2018-07-19T21:58:09.134Z,100841.48
2018-07-19T22:00:43.157Z,100840.84
2018-07-19T22:03:11.700Z,100838.86
2018-07-19T22:05:40.592Z,100847.28
2018-07-19T22:08:09.324Z,100845.69
2018-07-19T22:10:38.044Z,100851.13
2018-07-19T22:13:07.128Z,100851.29
2018-07-19T22:15:35.877Z,100845.17
2018-07-19T22:18:04.703Z,100846.14
2018-07-19T22:20:33.485Z,100848.20
2018-07-19T22:23:02.288Z,100844.67
2018-07-19T22:25:31.028Z,100848.66
2018-07-19T22:27:59.740Z,100851.06
2018-07-19T22:30:28.543Z,100854.14
2018-07-19T22:32:57.243Z,100850.74
2018-07-19T22:35:25.988Z,100853.21
2018-07-19T22:37:54.624Z,100858.38
2018-07-19T22:40:23.496Z,100858.17
2018-07-19T22:42:52.036Z,100863.34
2018-07-19T22:45:20.783Z,100859.34
2018-07-19T22:47:49.532Z,100861.77
2018-07-19T22:50:22.304Z,100860.06
2018-07-19T22:52:51.028Z,100853.21
2018-07-19T22:55:19.572Z,100852.16
2018-07-19T22:57:48.332Z,100857.01
2018-07-19T23:00:17.099Z,100850.81
2018-07-19T23:02:45.708Z,100855.50
2018-07-19T23:05:14.464Z,100850.66
2018-07-19T23:07:43.137Z,100851.44
2018-07-19T23:10:11.835Z,100858.49
2018-07-19T23:12:40.436Z,100851.84
2018-07-19T23:15:09.108Z,100850.14
2018-07-19T23:17:37.823Z,100856.92
2018-07-19T23:20:07.466Z,100851.11
2018-07-19T23:22:36.180Z,100854.58
2018-07-19T23:25:04.914Z,100852.88
2018-07-19T23:27:33.624Z,100859.75
2018-07-19T23:30:02.362Z,100853.94
2018-07-19T23:32:31.023Z,100859.10
2018-07-19T23:34:59.828Z,100855.52
2018-07-19T23:37:31.976Z,100854.05
2018-07-19T23:40:04.023Z,100857.05
2018-07-19T23:42:39.383Z,100858.33
2018-07-19T23:46:16.819Z,100852.54
2018-07-19T23:48:45.567Z,100846.48
2018-07-19T23:51:14.264Z,100843.26
2018-07-19T23:53:42.944Z,100842.87
2018-07-19T23:56:11.719Z,100839.17
2018-07-19T23:58:40.354Z,100833.55
